Huvudsida
METAR-TAF:

METAR-TAF

Flygplatser :

Navoi, Uzbekistan

latitud: 40-07-04N, longitud: 065-10-30E, höjd: 348 m

Aktuellt väderrapport

Denna rapport gjordes för 27 minuter sedan, klockan 14:30 UTC
Vind 6 kt från väst/nordväst
Temperatur 26°C
Fuktighet 34%
Tryck 1012 hPa
Sikt 10 km eller mer

METAR: UTSA 201430Z 29006KT 9999 NSC 26/09 Q1012 R25/CLRD70 NOSIG

Tid: 19:57 (14:57 UTC)

Väderprognos

Denna rapport gjordes för 3 timmar och 56 minuter sedan, klockan 11:01 UTC
Prognos gäller från 20 kl. 12 UTC till 21 kl. 12 UTC
Vind 10 kt från nord/nordväst
Sikt: 7000 m
Temporärt
från 20 kl. 12 UTC till 20 kl. 23 UTC
Vind 16 kt från väst i byarna ända upp till 26 kt
Sikt: 3500 m
Få moln på en höjd av 5000 ft, Cumulonimbus.
Spridda moln på en höjd av 10000 ft

TAF: UTSA 201101Z 2012/2112 33010KT 7000 NSC TEMPO 2012/2023 28016G26KT 3500 -DS FEW050CB SCT100

Aktuella väderrapporter och prognoser från 4000 flygplatser (METAR- och TAF-rapporter).

De tillgängliga stationerna syns som gula och röda prickar på kartan.

För musen över prickarna för att se namnen på stationerna.

Klicka sedan för att få väderrapporter och prognoser.

För att ändra kartan: Klicka på de gröna knapparna med ett svart kors på för att zooma in; den gröna knappen med ett streck på för att zooma ut; eller på de gröna pilarna för angränsande kartor.


METAR-TAF: